Wetterdaten: Woche 24.09.07 - 30.09.07 (KW39)
Datum Zeit Temperatur Luftfeuchte Luftdruck Niederschlag
24.09.2007 00:00 12,3 C 81 % 1022 hPa 0,0 l/m
24.09.2007 01:00 11,8 C 83 % 1022 hPa 0,0 l/m
24.09.2007 02:00 10,9 C 85 % 1022 hPa 0,0 l/m
24.09.2007 03:00 10,0 C 85 % 1022 hPa 0,0 l/m
24.09.2007 04:00 9,2 C 87 % 1021 hPa 0,0 l/m
24.09.2007 05:00 8,5 C 89 % 1021 hPa 0,0 l/m
24.09.2007 06:00 8,1 C 91 % 1021 hPa 0,0 l/m
24.09.2007 07:00 7,7 C 92 % 1021 hPa 0,0 l/m
24.09.2007 08:00 8,3 C 94 % 1021 hPa 0,0 l/m
24.09.2007 09:00 10,1 C 95 % 1021 hPa 0,0 l/m
24.09.2007 10:00 13,0 C 97 % 1020 hPa 0,0 l/m
24.09.2007 11:00 17,3 C 90 % 1020 hPa 0,0 l/m
24.09.2007 12:00 19,3 C 69 % 1019 hPa 0,0 l/m
24.09.2007 13:00 21,4 C 57 % 1019 hPa 0,0 l/m
24.09.2007 14:00 23,3 C 42 % 1018 hPa 0,0 l/m
24.09.2007 15:00 23,5 C 37 % 1017 hPa 0,0 l/m
24.09.2007 16:00 22,5 C 39 % 1017 hPa 0,0 l/m
24.09.2007 17:00 21,7 C 43 % 1017 hPa 0,0 l/m
24.09.2007 18:00 20,3 C 47 % 1017 hPa 0,0 l/m
24.09.2007 19:00 18,4 C 55 % 1017 hPa 0,0 l/m
24.09.2007 20:00 17,0 C 62 % 1017 hPa 0,0 l/m
24.09.2007 21:00 16,0 C 67 % 1018 hPa 0,0 l/m
24.09.2007 22:00 15,7 C 71 % 1018 hPa 0,0 l/m
24.09.2007 23:00 14,5 C 76 % 1018 hPa 0,0 l/m
25.09.2007 00:00 13,6 C 80 % 1018 hPa 0,0 l/m
25.09.2007 01:00 12,8 C 84 % 1017 hPa 0,0 l/m
25.09.2007 02:00 12,6 C 88 % 1017 hPa 0,0 l/m
25.09.2007 03:00 13,1 C 91 % 1017 hPa 0,0 l/m
25.09.2007 04:00 13,7 C 86 % 1017 hPa 0,0 l/m
25.09.2007 05:00 13,4 C 88 % 1016 hPa 0,0 l/m
25.09.2007 06:00 12,4 C 88 % 1017 hPa 1,0 l/m
25.09.2007 07:00 11,0 C 89 % 1018 hPa 1,0 l/m
25.09.2007 08:00 10,2 C 88 % 1019 hPa 0,0 l/m
25.09.2007 09:00 10,4 C 90 % 1019 hPa 0,0 l/m
25.09.2007 10:00 10,8 C 90 % 1019 hPa 1,0 l/m
25.09.2007 11:00 11,0 C 90 % 1019 hPa 1,0 l/m
25.09.2007 12:00 11,2 C 90 % 1019 hPa 0,0 l/m
25.09.2007 13:00 11,3 C 89 % 1019 hPa 0,0 l/m
25.09.2007 14:00 10,9 C 87 % 1019 hPa 1,0 l/m
25.09.2007 15:00 10,3 C 88 % 1019 hPa 0,0 l/m
25.09.2007 16:00 10,0 C 91 % 1018 hPa 0,0 l/m
25.09.2007 17:00 9,5 C 92 % 1018 hPa 0,0 l/m
25.09.2007 18:00 8,9 C 93 % 1018 hPa 0,0 l/m
25.09.2007 19:00 8,6 C 94 % 1018 hPa 1,0 l/m
25.09.2007 20:00 8,3 C 94 % 1018 hPa 0,0 l/m
25.09.2007 21:00 8,0 C 93 % 1018 hPa 0,0 l/m
25.09.2007 22:00 7,9 C 94 % 1018 hPa 0,0 l/m
25.09.2007 23:00 7,8 C 94 % 1018 hPa 0,0 l/m
26.09.2007 00:00 7,8 C 95 % 1018 hPa 0,0 l/m
26.09.2007 01:00 7,8 C 95 % 1018 hPa 0,0 l/m
26.09.2007 02:00 7,6 C 95 % 1017 hPa 0,0 l/m
26.09.2007 03:00 7,5 C 96 % 1017 hPa 0,0 l/m
26.09.2007 04:00 7,4 C 96 % 1016 hPa 0,0 l/m
26.09.2007 05:00 7,4 C 96 % 1016 hPa 0,0 l/m
26.09.2007 06:00 7,4 C 97 % 1016 hPa 0,0 l/m
26.09.2007 07:00 7,4 C 97 % 1016 hPa 0,0 l/m
26.09.2007 08:00 7,6 C 97 % 1015 hPa 0,0 l/m
26.09.2007 09:00 7,8 C 98 % 1015 hPa 0,0 l/m
26.09.2007 10:00 8,2 C 98 % 1015 hPa 1,0 l/m
26.09.2007 11:00 8,8 C 98 % 1015 hPa 0,0 l/m
26.09.2007 12:00 9,8 C 95 % 1014 hPa 0,0 l/m
26.09.2007 13:00 10,3 C 87 % 1014 hPa 0,0 l/m
26.09.2007 14:00 10,1 C 79 % 1013 hPa 2,0 l/m
26.09.2007 15:00 9,3 C 78 % 1013 hPa 1,0 l/m
26.09.2007 16:00 8,8 C 83 % 1012 hPa 2,0 l/m
26.09.2007 17:00 8,5 C 86 % 1012 hPa 1,0 l/m
26.09.2007 18:00 8,2 C 86 % 1012 hPa 0,0 l/m
26.09.2007 19:00 7,7 C 87 % 1012 hPa 1,0 l/m
26.09.2007 20:00 7,3 C 89 % 1011 hPa 0,0 l/m
26.09.2007 21:00 7,3 C 91 % 1011 hPa 0,0 l/m
26.09.2007 22:00 7,3 C 93 % 1011 hPa 0,0 l/m
26.09.2007 23:00 7,2 C 94 % 1010 hPa 0,0 l/m
27.09.2007 00:00 7,1 C 94 % 1010 hPa 0,0 l/m
27.09.2007 01:00 7,1 C 95 % 1009 hPa 0,0 l/m
27.09.2007 02:00 7,1 C 95 % 1009 hPa 1,0 l/m
27.09.2007 03:00 7,1 C 96 % 1008 hPa 4,0 l/m
27.09.2007 04:00 7,0 C 96 % 1007 hPa 0,0 l/m
27.09.2007 05:00 7,0 C 96 % 1007 hPa 1,0 l/m
27.09.2007 06:00 6,9 C 97 % 1006 hPa 1,0 l/m
27.09.2007 07:00 7,0 C 97 % 1006 hPa 0,0 l/m
27.09.2007 08:00 7,1 C 97 % 1005 hPa 1,0 l/m
27.09.2007 09:00 7,3 C 98 % 1005 hPa 1,0 l/m
27.09.2007 10:00 8,0 C 98 % 1005 hPa 0,0 l/m
27.09.2007 11:00 8,4 C 98 % 1005 hPa 0,0 l/m
27.09.2007 12:00 9,0 C 98 % 1005 hPa 0,0 l/m
27.09.2007 13:00 9,5 C 95 % 1005 hPa 0,0 l/m
27.09.2007 14:00 9,4 C 91 % 1005 hPa 0,0 l/m
27.09.2007 15:00 10,6 C 81 % 1005 hPa 0,0 l/m
27.09.2007 16:00 10,4 C 74 % 1005 hPa 0,0 l/m
27.09.2007 17:00 10,1 C 75 % 1005 hPa 0,0 l/m
27.09.2007 18:00 10,0 C 76 % 1005 hPa 0,0 l/m
27.09.2007 19:00 9,4 C 80 % 1006 hPa 0,0 l/m
27.09.2007 20:00 8,9 C 84 % 1006 hPa 0,0 l/m
27.09.2007 21:00 8,0 C 85 % 1006 hPa 0,0 l/m
27.09.2007 22:00 6,8 C 87 % 1006 hPa 0,0 l/m
27.09.2007 23:00 6,3 C 90 % 1006 hPa 0,0 l/m
28.09.2007 00:00 5,4 C 92 % 1006 hPa 0,0 l/m
28.09.2007 01:00 5,5 C 94 % 1006 hPa 0,0 l/m
28.09.2007 02:00 5,3 C 95 % 1006 hPa 0,0 l/m
28.09.2007 03:00 5,3 C 96 % 1006 hPa 0,0 l/m
28.09.2007 04:00 5,5 C 97 % 1006 hPa 0,0 l/m
28.09.2007 05:00 5,4 C 97 % 1006 hPa 0,0 l/m
28.09.2007 06:00 5,6 C 98 % 1006 hPa 0,0 l/m
28.09.2007 07:00 5,6 C 98 % 1006 hPa 0,0 l/m
28.09.2007 08:00 6,1 C 98 % 1006 hPa 0,0 l/m
28.09.2007 09:00 7,3 C 98 % 1006 hPa 0,0 l/m
28.09.2007 10:00 8,1 C 96 % 1007 hPa 0,0 l/m
28.09.2007 11:00 8,8 C 89 % 1007 hPa 0,0 l/m
28.09.2007 12:00 9,2 C 80 % 1008 hPa 0,0 l/m
28.09.2007 13:00 9,7 C 76 % 1008 hPa 0,0 l/m
28.09.2007 14:00 10,4 C 70 % 1008 hPa 0,0 l/m
28.09.2007 15:00 10,4 C 71 % 1008 hPa 0,0 l/m
28.09.2007 16:00 10,5 C 71 % 1009 hPa 0,0 l/m
28.09.2007 17:00 10,5 C 70 % 1009 hPa 0,0 l/m
28.09.2007 18:00 10,4 C 70 % 1010 hPa 0,0 l/m
28.09.2007 19:00 10,1 C 69 % 1010 hPa 0,0 l/m
28.09.2007 20:00 9,8 C 71 % 1011 hPa 0,0 l/m
28.09.2007 21:00 9,8 C 70 % 1012 hPa 0,0 l/m
28.09.2007 22:00 9,7 C 72 % 1012 hPa 0,0 l/m
28.09.2007 23:00 9,9 C 72 % 1012 hPa 0,0 l/m
29.09.2007 00:00 10,1 C 70 % 1013 hPa 0,0 l/m
29.09.2007 01:00 10,1 C 71 % 1013 hPa 0,0 l/m
29.09.2007 02:00 10,0 C 71 % 1014 hPa 0,0 l/m
29.09.2007 03:00 10,0 C 71 % 1014 hPa 0,0 l/m
29.09.2007 04:00 9,9 C 75 % 1014 hPa 0,0 l/m
29.09.2007 05:00 9,5 C 81 % 1015 hPa 0,0 l/m
29.09.2007 06:00 8,9 C 84 % 1015 hPa 0,0 l/m
29.09.2007 07:00 8,5 C 84 % 1016 hPa 0,0 l/m
29.09.2007 08:00 9,3 C 77 % 1016 hPa 0,0 l/m
29.09.2007 09:00 10,6 C 67 % 1017 hPa 0,0 l/m
29.09.2007 10:00 12,2 C 56 % 1017 hPa 0,0 l/m
29.09.2007 11:00 13,3 C 51 % 1017 hPa 0,0 l/m
29.09.2007 12:00 14,3 C 47 % 1018 hPa 0,0 l/m
29.09.2007 13:00 15,4 C 43 % 1018 hPa 0,0 l/m
29.09.2007 14:00 16,4 C 40 % 1017 hPa 0,0 l/m
29.09.2007 15:00 16,8 C 38 % 1017 hPa 0,0 l/m
29.09.2007 16:00 16,1 C 39 % 1018 hPa 0,0 l/m
29.09.2007 17:00 15,5 C 40 % 1018 hPa 0,0 l/m
29.09.2007 18:00 14,3 C 46 % 1018 hPa 0,0 l/m
29.09.2007 19:00 12,2 C 56 % 1019 hPa 0,0 l/m
29.09.2007 20:00 10,8 C 65 % 1019 hPa 0,0 l/m
29.09.2007 21:00 11,5 C 65 % 1020 hPa 0,0 l/m
29.09.2007 22:00 11,7 C 62 % 1020 hPa 0,0 l/m
29.09.2007 23:00 11,3 C 67 % 1021 hPa 0,0 l/m
30.09.2007 00:00 10,1 C 71 % 1021 hPa 0,0 l/m
30.09.2007 01:00 9,3 C 77 % 1021 hPa 0,0 l/m
30.09.2007 02:00 9,0 C 81 % 1022 hPa 0,0 l/m
30.09.2007 03:00 9,7 C 86 % 1022 hPa 0,0 l/m
30.09.2007 04:00 10,8 C 85 % 1022 hPa 0,0 l/m
30.09.2007 05:00 11,0 C 86 % 1022 hPa 0,0 l/m
30.09.2007 06:00 11,3 C 86 % 1022 hPa 0,0 l/m
30.09.2007 07:00 10,9 C 87 % 1023 hPa 0,0 l/m
30.09.2007 08:00 10,8 C 90 % 1024 hPa 0,0 l/m
30.09.2007 09:00 11,1 C 91 % 1024 hPa 0,0 l/m
30.09.2007 10:00 12,2 C 91 % 1025 hPa 0,0 l/m
30.09.2007 11:00 13,6 C 80 % 1025 hPa 0,0 l/m
30.09.2007 12:00 15,5 C 66 % 1025 hPa 0,0 l/m
30.09.2007 13:00 16,2 C 60 % 1025 hPa 0,0 l/m
30.09.2007 14:00 16,8 C 57 % 1025 hPa 0,0 l/m
30.09.2007 15:00 18,3 C 48 % 1025 hPa 0,0 l/m
30.09.2007 16:00 17,5 C 46 % 1025 hPa 0,0 l/m
30.09.2007 17:00 17,0 C 46 % 1025 hPa 0,0 l/m
30.09.2007 18:00 15,6 C 55 % 1024 hPa 0,0 l/m
30.09.2007 19:00 13,3 C 66 % 1025 hPa 0,0 l/m
30.09.2007 20:00 11,6 C 73 % 1025 hPa 0,0 l/m
30.09.2007 21:00 10,6 C 79 % 1025 hPa 0,0 l/m
30.09.2007 22:00 10,2 C 83 % 1025 hPa 0,0 l/m
30.09.2007 23:00 9,5 C 85 % 1025 hPa 0,0 l/m
Min-Datum _ 28.09.07 24.09.07 27.09.07 -
_ Min-Zeit 02:27 15:33 15:26 -
Minimum _ 5,2 C 35 % 1004 hPa -
Max-Datum _ 24.09.07 26.09.07 30.09.07 27.09.07
_ Max-Zeit 15:04 09:03 10:26 03:28
Maximum _ 23,7 C 98 % 1025 hPa 4,0 l/m
Durchschnitt _ 10,7 C 80 % 1015 hPa #23,0 l/m

Durchschnitt Minimum Temp.10,4 C
Durchschnitt Maximum Temp.11,0 C